Sunday, August 19, 2018, 12:24 AM GMT
Back to Local

CYHZ, Halifax International Airport

Location: , , Canada Lat: 44.883
Local Time: 12:24 AM GMT ( 0:24 GMT) Lon: -63.5
Time Zone: GMT Elev: 475 ft

Show me the last for .
Show Coded

Time T Td Feel RH Dir Speed Gust Alt SLP Vis Weather Sky Remarks
2018-08-19 00:00 66 66 - 100 350° 15 - 29.75 29.75 12 -RA OVC002 None
2018-08-18 23:28 68 68 - 100 320° 14 - 29.74 29.74 8 -RA OVC003 None
2018-08-18 23:22 68 68 - 100 320° 10 - 29.74 29.74 8 -RA OVC004 None
2018-08-18 23:00 68 68 - 100 290° 8 - 29.74 29.75 8 -RA BKN003 OVC046 None
2018-08-18 22:41 68 68 - 100 290° 8 - 29.74 29.74 10 -RA SCT003 BKN042 OVC110 None
2018-08-18 22:00 68 68 - 100 270° 10 - 29.74 29.74 4 -RA BR OVC002 None
2018-08-18 21:27 68 68 - 100 240° 13 18 29.73 29.73 6 -RA BR OVC003 None
2018-08-18 21:00 68 68 - 100 220° 13 21 29.72 29.73 3 -RA BR OVC003 None
2018-08-18 20:46 68 68 - 100 220° 12 22 29.72 29.72 8 -RA OVC003 None
2018-08-18 20:00 68 68 - 100 210° 14 25 29.72 29.72 4 BR OVC002 None
2018-08-18 19:36 68 68 - 100 200° 12 23 29.74 29.74 2 -RA BR OVC002 None
2018-08-18 19:15 68 68 - 100 180° 9 - 29.74 29.75 1 RA BR VV002 None
2018-08-18 19:09 68 68 - 100 180° 9 - 29.75 29.75 1 +RA BR VV001 None
2018-08-18 19:00 68 68 - 100 160° 7 - 29.75 29.75 1 -RA BR VV002 Pressure falling rapidly
2018-08-18 18:29 68 68 - 100 180° 9 - 29.77 29.77 2 -RA BR VV002 None
2018-08-18 18:00 68 68 - 100 170° 8 - 29.78 29.78 1 -RA BR VV001 None
2018-08-18 17:37 68 68 - 100 170° 9 - 29.79 29.79 1 -RA BR VV001 None
2018-08-18 17:00 66 66 - 100 170° 12 20 29.81 29.82 1 -RA BR OVC001 None
2018-08-18 16:50 66 66 - 100 160° 12 - 29.82 29.82 1 -RA BR VV001 None
2018-08-18 16:00 64 64 - 100 170° 13 20 29.85 29.85 3 -RA BR OVC005 None
2018-08-18 15:44 64 64 - 100 170° 14 21 29.85 29.86 4 -RA BR OVC007 None
2018-08-18 15:31 66 64 - 93 170° 12 20 29.86 29.87 6 -RA BR OVC009 None
2018-08-18 15:23 66 64 - 93 170° 12 21 29.86 29.87 10 -RA OVC010 None
2018-08-18 15:08 66 63 - 88 170° 12 20 29.87 29.88 12 -RA OVC012 None
2018-08-18 15:00 66 63 - 88 160° 14 - 29.87 29.88 12 BKN015 OVC020 None
2018-08-18 14:00 64 61 - 88 150° 13 20 29.89 29.90 15 OVC017 None
2018-08-18 13:00 64 61 - 88 160° 15 22 29.90 29.90 15 OVC021 None
2018-08-18 12:00 64 61 - 88 160° 13 23 29.91 29.91 15 BKN022 OVC140 None
2018-08-18 11:13 61 61 - 100 150° 12 - 29.93 29.93 12 SCT003 OVC032 None
2018-08-18 11:00 61 61 - 100 160° 9 - 29.93 29.94 10 BKN002 OVC031 None
2018-08-18 10:52 61 61 - 100 160° 10 - 29.93 29.94 10 OVC002 None
2018-08-18 10:36 61 61 - 100 160° 10 - 29.94 29.94 0 BR VV001 None
2018-08-18 10:00 59 59 - 100 160° 9 - 29.94 29.95 0 FG VV001 Pressure falling rapidly
2018-08-18 09:16 57 57 - 100 150° 8 - 29.95 29.96 0 FG VV001 None
2018-08-18 09:00 57 57 - 100 150° 7 - 29.96 29.96 0 FG BKN001 OVC050 None
2018-08-18 08:57 57 57 - 100 150° 6 - 29.96 29.96 0 FG BKN001 OVC050 None
2018-08-18 08:43 57 57 - 100 170° 8 - 29.97 29.97 1 BR BKN001 OVC050 None
2018-08-18 08:37 57 57 - 100 180° 7 - 29.97 29.97 2 BR BKN002 OVC055 None
2018-08-18 08:20 57 57 - 100 170° 8 - 29.96 29.97 10 FEW002 SCT055 BKN120 BKN260 None
2018-08-18 08:00 57 57 - 100 160° 7 - 29.97 29.97 15 SCT260 None
2018-08-18 07:00 57 57 - 100 180° 8 - 29.99 29.99 15 FEW260 None
2018-08-18 06:00 59 57 - 93 210° 9 - 30.01 30.01 15 FEW034 SCT260 None
2018-08-18 05:00 59 55 - 87 200° 8 - 30.02 30.03 15 FEW036 SCT240 None
2018-08-18 04:00 59 55 - 87 210° 9 - 30.03 30.04 15 FEW040 SCT210 None
2018-08-18 03:00 59 55 - 87 210° 9 - 30.03 30.03 15 FEW040 SCT260 None
2018-08-18 02:00 61 57 - 87 210° 8 - 30.04 30.05 15 FEW042 SCT250 None
2018-08-18 01:00 61 57 - 87 220° 8 - 30.06 30.06 15 SCT250 None

Support USWX by starting your Amazon purchase here.